Gregorian/Lunar Calendar
Traditional Chinese Simplified Chinese
Daily Extract of Hong Kong Observatory for Father's day
dotted Line

Climatological Information for Father's day
(Period: 1947 - 2017)

[3rd Sunday of June]

  1. Table of Daily Maximum Air Temperature recorded at Hong Kong Observatoy ( Annual Data  /  30-year Normals )
  2. Table of Daily Mean Temperature recorded at Hong Kong Observatoy ( Annual Data  /  30-year Normals )
  3. Table of Daily Minimum Air Temperature recorded at Hong Kong Observatoy ( Annual Data  /  30-year Normals )
  4. Table of Daily Mean Relative Humidity recorded at Hong Kong Observatoy ( Annual Data  /  30-year Normals )
  5. Table of Daily Total Rainfall recorded at Hong Kong Observatoy ( Annual Data  /  30-year Normals )
  6. Table of Daily Mean Cloud Amount recorded at Hong Kong Observatoy ( Annual Data  /  30-year Normals )

Date
(yyyy-mm-dd)
Daily Maximum Air Temperature recorded at
Hong Kong Observatory
(°C)
D-3 D-2 D-1 Day(D) D+1 D+2 D+3
1947-06-15 30.6 29.2 30.3 31.0 31.5 29.8 25.1
1948-06-20 29.6 28.0 26.6 28.9 28.2 29.4 30.4
1949-06-19 29.4 31.9 29.0 29.1 26.7 27.8 27.8
1950-06-18 28.8 30.5 31.6 31.9 32.6 30.6 29.1
1951-06-17 30.5 28.2 28.4 28.4 29.7 27.8 27.8
1952-06-15 28.4 27.7 27.9 30.7 32.0 32.6 32.7
1953-06-21 29.6 31.1 32.4 32.4 32.2 31.9 32.3
1954-06-20 31.9 31.4 31.2 31.3 31.2 30.2 32.2
1955-06-19 31.0 30.4 30.9 30.6 30.5 31.1 31.3
1956-06-17 27.9 28.6 30.3 28.1 31.6 30.4 30.6
1957-06-16 29.6 29.2 29.0 28.3 28.8 29.0 32.2
1958-06-15 29.4 30.6 32.4 33.4 29.0 24.0 28.9
1959-06-21 31.3 32.2 32.6 32.2 32.0 30.7 32.3
1960-06-19 27.8 31.3 31.2 31.9 32.0 31.8 32.9
1961-06-18 32.8 33.3 33.1 33.6 31.9 32.5 33.6
1962-06-17 27.9 30.1 28.4 28.6 29.9 28.0 31.0
1963-06-16 31.6 31.3 27.6 29.8 28.7 29.5 32.0
1964-06-21 31.0 30.5 30.8 31.2 32.4 31.6 31.6
1965-06-20 30.7 31.8 30.8 28.3 27.2 26.9 28.6
1966-06-19 30.8 31.4 30.9 31.4 29.7 29.7 28.8
1967-06-18 32.0 32.0 32.2 31.5 32.3 32.3 32.8
1968-06-16 30.6 29.0 31.4 30.2 31.1 31.3 28.8
1969-06-15 31.7 28.8 29.5 29.6 30.9 32.3 31.0
1970-06-21 30.2 32.5 31.4 31.7 30.1 31.2 31.6
1971-06-20 29.5 27.7 29.6 31.7 32.3 32.1 31.6
1972-06-18 29.2 28.2 27.5 26.1 30.1 31.0 31.6
1973-06-17 28.3 26.8 29.1 31.6 31.8 32.6 33.1
1974-06-16 28.8 30.3 30.3 30.7 29.9 28.6 30.4
1975-06-15 28.1 26.1 28.9 29.1 28.7 29.2 28.0
1976-06-20 32.2 32.4 32.4 32.2 29.4 31.5 31.9
1977-06-19 32.8 32.4 31.1 32.1 31.8 30.1 30.1
1978-06-18 33.0 32.5 32.8 33.2 32.7 33.4 32.6
1979-06-17 28.5 29.4 29.3 26.9 29.1 31.2 31.3
1980-06-15 33.1 32.8 33.4 32.9 32.9 33.7 33.8
1981-06-21 30.4 32.5 32.3 33.1 32.8 30.7 30.3
1982-06-20 31.2 31.4 31.3 31.5 31.7 31.2 28.1
1983-06-19 29.5 29.0 29.4 30.0 30.3 31.7 32.0
1984-06-17 30.8 30.2 29.1 28.6 29.3 30.1 29.7
1985-06-16 29.4 27.5 27.3 28.9 30.0 27.7 26.2
1986-06-15 29.1 28.2 31.5 31.8 31.7 30.6 31.4
1987-06-21 27.1 29.1 30.6 31.0 32.6 31.2 32.3
1988-06-19 32.8 31.8 32.1 31.4 31.8 32.1 32.2
1989-06-18 30.9 31.2 31.0 31.6 30.7 29.1 28.2
1990-06-17 32.6 32.3 29.2 28.6 29.9 31.1 30.9
1991-06-16 31.8 32.3 32.4 32.4 33.3 33.1 30.3
1992-06-21 31.7 30.9 30.8 30.9 32.1 32.1 32.4
1993-06-20 29.4 30.2 31.2 31.2 32.6 33.0 32.0
1994-06-19 29.9 29.7 29.0 27.1 28.2 29.7 30.9
1995-06-18 30.0 31.1 30.6 30.3 32.1 32.4 31.9
1996-06-16 31.9 31.9 29.4 28.3 31.4 30.0 31.3
1997-06-15 28.9 27.2 27.7 25.8 24.7 24.6 25.2
1998-06-21 31.9 30.9 31.8 31.7 31.0 30.3 30.6
1999-06-20 29.6 30.6 32.2 29.2 30.2 30.7 30.2
2000-06-18 29.5 30.7 27.2 26.7 29.6 28.0 30.9
2001-06-17 28.9 29.4 30.2 32.2 32.5 32.3 30.6
2002-06-16 31.3 31.8 31.2 31.1 31.5 30.9 31.3
2003-06-15 29.2 27.3 28.4 27.6 25.8 30.3 31.8
2004-06-20 31.2 31.3 32.3 33.2 31.8 32.2 31.3
2005-06-19 27.5 29.4 30.9 30.9 30.5 29.6 29.3
2006-06-18 29.4 30.8 31.7 30.9 28.5 31.6 31.4
2007-06-17 27.8 29.1 32.1 29.1 31.4 32.9 33.3
2008-06-15 30.3 28.6 26.8 29.5 27.8 25.7 27.7
2009-06-21 31.4 32.6 32.2 32.3 30.5 32.3 32.0
2010-06-20 31.4 31.4 31.5 31.5 32.0 31.5 30.1
2011-06-19 28.4 29.9 32.5 32.4 33.5 33.2 28.6
2012-06-17 30.3 29.8 27.9 28.2 30.0 32.1 33.0
2013-06-16 26.9 26.2 26.2 27.8 29.9 32.5 33.0
2014-06-15 32.3 31.9 33.5 30.8 31.9 31.9 32.5
2015-06-21 34.2 34.2 34.1 31.9 30.0 29.1 30.7
2016-06-19 31.4 32.1 30.8 34.2 34.4 33.7 33.7
2017-06-18 31.1 29.6 28.4 27.3 28.3 28.2 29.2
Maximum 34.2 34.2 34.1 34.2 34.4 33.7 33.8
Minimum 26.9 26.1 26.2 25.8 24.7 24.0 25.1
30-year Normals
(1961-1990) 30.6 30.4 30.5 30.6 30.8 30.8 30.9
(1971-2000) 30.4 30.2 30.4 30.2 30.8 30.8 30.7
(1981-2010) 30.2 30.3 30.4 30.3 30.6 30.6 30.5
### means data not available
Column's Maximum in light red background colour
Column's Minimum in light blue background colour



Date
(yyyy-mm-dd)
Daily Mean Temperature recorded at
Hong Kong Observatory
(°C)
D-3 D-2 D-1 Day(D) D+1 D+2 D+3
1947-06-15 28.5 28.2 28.6 28.7 29.1 25.5 24.0
1948-06-20 28.1 25.5 24.7 26.2 26.7 27.1 27.9
1949-06-19 27.3 27.9 26.7 26.1 25.5 25.8 26.0
1950-06-18 27.3 27.4 27.9 28.6 29.0 27.8 26.6
1951-06-17 27.9 26.6 25.3 25.0 25.7 26.4 26.5
1952-06-15 26.9 25.4 26.7 27.9 28.5 29.2 29.4
1953-06-21 27.8 28.3 28.8 29.1 29.2 29.3 29.2
1954-06-20 29.3 29.3 29.1 28.3 28.3 27.4 28.6
1955-06-19 28.5 28.4 28.5 28.1 28.4 28.3 28.3
1956-06-17 26.2 27.3 27.9 25.9 27.1 27.6 27.7
1957-06-16 26.9 27.0 27.1 26.9 27.4 27.8 28.2
1958-06-15 26.8 27.4 28.2 29.3 26.2 22.5 26.1
1959-06-21 28.8 29.3 29.3 29.3 28.8 27.5 28.3
1960-06-19 26.1 27.9 28.3 28.5 28.9 28.8 29.3
1961-06-18 28.9 29.3 29.6 29.8 29.3 29.6 29.8
1962-06-17 25.7 27.1 26.5 26.9 27.1 27.1 28.3
1963-06-16 28.9 27.9 26.2 27.1 26.7 26.8 28.5
1964-06-21 28.7 28.5 28.8 28.5 28.5 28.3 28.2
1965-06-20 28.1 27.9 28.0 26.7 26.0 25.9 26.6
1966-06-19 28.3 28.2 28.1 28.8 27.7 28.4 26.5
1967-06-18 29.0 29.0 29.2 29.3 29.7 29.7 29.8
1968-06-16 27.3 28.0 28.6 28.5 28.7 29.0 27.5
1969-06-15 28.3 26.5 26.9 26.7 27.6 29.0 27.3
1970-06-21 27.9 29.1 28.9 29.2 28.0 28.7 28.5
1971-06-20 27.4 26.4 27.5 28.7 28.8 29.1 28.5
1972-06-18 27.4 25.7 25.6 24.8 27.7 28.3 28.5
1973-06-17 25.5 25.4 26.7 28.5 29.2 29.8 29.8
1974-06-16 27.0 27.2 27.2 27.5 27.8 27.3 28.1
1975-06-15 26.6 25.0 26.4 26.4 26.3 26.2 26.4
1976-06-20 28.7 29.1 29.1 28.6 27.4 28.5 28.8
1977-06-19 29.5 29.9 29.3 29.6 29.3 28.8 28.1
1978-06-18 30.0 29.6 29.4 29.9 29.7 29.6 29.6
1979-06-17 24.9 26.0 26.5 25.7 26.6 28.1 28.5
1980-06-15 29.7 29.8 29.7 29.7 29.7 30.0 29.8
1981-06-21 27.3 28.4 28.9 29.5 29.4 28.0 27.6
1982-06-20 29.4 29.1 29.5 29.6 29.3 29.5 26.1
1983-06-19 29.0 26.3 28.8 29.1 29.1 29.6 29.5
1984-06-17 29.0 29.1 26.3 27.0 27.8 27.6 27.4
1985-06-16 27.7 25.3 25.7 26.1 27.4 26.5 25.3
1986-06-15 26.9 27.2 28.7 29.0 29.3 28.3 28.8
1987-06-21 26.2 26.9 27.6 28.7 29.6 29.5 30.0
1988-06-19 29.9 29.4 29.5 29.6 29.8 29.9 30.1
1989-06-18 28.6 28.8 28.9 29.4 29.2 26.6 26.6
1990-06-17 29.7 29.7 27.4 26.9 27.7 28.4 28.4
1991-06-16 29.1 29.5 29.7 30.0 30.6 30.0 28.4
1992-06-21 28.9 27.8 27.7 28.1 29.3 29.6 29.9
1993-06-20 28.0 28.6 29.2 29.1 29.5 29.9 29.3
1994-06-19 28.9 29.0 26.1 25.8 26.8 27.5 28.3
1995-06-18 29.1 29.3 29.4 27.9 29.5 29.8 29.9
1996-06-16 29.5 29.0 27.3 26.5 28.3 28.5 28.9
1997-06-15 27.3 25.4 25.5 24.6 23.8 23.6 24.1
1998-06-21 30.5 29.9 30.2 30.1 29.9 27.6 29.4
1999-06-20 28.1 28.8 29.1 28.1 27.7 28.9 28.8
2000-06-18 25.9 26.9 25.7 25.7 27.3 26.5 28.4
2001-06-17 26.7 27.1 28.3 29.2 29.6 29.6 28.8
2002-06-16 29.0 29.3 29.5 29.1 29.4 29.4 29.3
2003-06-15 26.5 26.0 26.5 26.1 25.2 27.0 28.7
2004-06-20 29.0 29.1 29.9 29.9 28.6 29.9 29.4
2005-06-19 26.3 26.8 28.9 29.4 29.5 28.7 27.4
2006-06-18 28.4 28.8 29.3 29.0 27.7 28.0 28.2
2007-06-17 25.8 26.3 28.1 27.6 28.1 29.2 29.6
2008-06-15 28.4 27.3 25.3 26.5 26.3 25.1 25.6
2009-06-21 29.0 29.1 29.9 30.1 29.6 29.8 29.1
2010-06-20 29.7 29.8 29.7 29.5 29.6 29.3 28.0
2011-06-19 26.6 27.3 29.0 29.2 29.9 29.1 26.6
2012-06-17 27.4 28.0 26.1 26.7 27.3 28.2 29.9
2013-06-16 25.0 24.9 25.6 26.8 27.5 28.8 29.7
2014-06-15 28.8 28.8 29.8 28.2 29.6 30.2 30.1
2015-06-21 30.7 30.8 30.9 28.5 27.9 27.3 28.3
2016-06-19 29.4 29.4 29.3 30.1 30.8 30.6 30.5
2017-06-18 29.2 29.0 25.5 26.2 26.2 26.5 27.4
Maximum 30.7 30.8 30.9 30.1 30.8 30.6 30.5
Minimum 24.9 24.9 24.7 24.6 23.8 22.5 24.0
30-year Normals
(1961-1990) 28.1 27.9 28.0 28.2 28.3 28.4 28.2
(1971-2000) 28.2 28.0 28.0 28.0 28.5 28.4 28.4
(1981-2010) 28.3 28.1 28.2 28.2 28.5 28.4 28.3
### means data not available
Column's Maximum in light red background colour
Column's Minimum in light blue background colour



Date
(yyyy-mm-dd)
Daily Minimum Air Temperature recorded at
Hong Kong Observatory
(°C)
D-3 D-2 D-1 Day(D) D+1 D+2 D+3
1947-06-15 27.5 27.6 27.8 26.8 28.0 23.6 22.9
1948-06-20 25.3 23.2 23.3 24.1 25.4 25.3 26.3
1949-06-19 24.4 25.7 25.6 25.4 24.7 24.4 24.6
1950-06-18 24.9 24.7 25.8 25.8 26.7 25.7 24.9
1951-06-17 24.8 24.4 23.3 23.4 23.3 24.4 25.3
1952-06-15 24.8 21.8 24.6 25.3 25.7 26.7 27.1
1953-06-21 24.6 26.1 25.7 26.4 27.2 27.3 27.6
1954-06-20 26.7 28.1 27.4 23.1 25.2 24.6 25.9
1955-06-19 26.9 27.3 26.4 26.8 27.2 26.4 26.1
1956-06-17 24.4 23.2 22.9 23.7 24.1 25.6 23.9
1957-06-16 25.6 25.4 25.7 25.3 24.7 26.1 26.7
1958-06-15 25.7 24.4 25.4 26.7 23.2 20.5 22.4
1959-06-21 27.5 27.7 27.3 27.1 26.2 25.3 24.9
1960-06-19 24.1 25.7 26.4 26.7 26.7 26.8 27.2
1961-06-18 27.1 27.0 27.0 26.6 27.5 27.3 27.2
1962-06-17 23.8 25.1 24.7 24.6 25.2 25.8 26.3
1963-06-16 27.0 25.4 24.6 25.0 25.3 24.0 25.6
1964-06-21 27.0 27.1 27.5 26.3 26.3 25.2 25.8
1965-06-20 25.9 25.0 26.5 25.6 24.3 24.9 24.6
1966-06-19 26.8 26.5 26.3 26.8 24.0 27.3 24.9
1967-06-18 26.7 26.9 27.4 26.7 28.2 28.0 27.2
1968-06-16 24.0 27.4 27.4 27.2 27.2 27.6 23.9
1969-06-15 26.4 24.6 25.2 24.6 24.9 26.2 25.3
1970-06-21 26.4 25.8 27.7 27.2 24.8 26.1 26.2
1971-06-20 25.1 24.3 25.8 26.7 26.4 27.0 26.2
1972-06-18 26.0 23.6 23.8 23.3 24.6 26.4 26.5
1973-06-17 23.6 23.9 24.1 26.6 27.6 28.0 28.3
1974-06-16 26.1 25.3 25.9 25.7 26.6 24.3 26.8
1975-06-15 25.2 23.9 24.3 24.9 25.2 24.7 24.5
1976-06-20 26.5 26.8 26.7 27.4 25.6 26.7 26.5
1977-06-19 26.5 28.4 27.6 28.4 27.6 26.5 25.9
1978-06-18 27.6 27.0 26.8 27.7 28.0 27.5 27.8
1979-06-17 22.1 24.3 24.6 25.0 25.0 26.2 26.5
1980-06-15 27.5 27.8 27.8 27.2 27.6 27.8 27.8
1981-06-21 25.4 25.8 26.5 27.8 27.6 26.5 25.7
1982-06-20 28.4 27.6 28.0 28.6 26.1 28.0 24.8
1983-06-19 28.4 24.9 28.0 28.5 27.7 27.9 28.0
1984-06-17 27.1 28.3 23.8 25.5 26.9 26.3 25.6
1985-06-16 25.1 23.9 24.6 24.1 25.6 25.9 24.0
1986-06-15 25.7 25.9 27.1 27.3 27.7 24.5 26.7
1987-06-21 25.6 25.3 25.7 26.6 28.0 28.4 28.8
1988-06-19 28.0 27.4 28.3 27.7 28.5 27.1 28.0
1989-06-18 27.4 27.4 27.7 28.2 27.3 24.6 25.0
1990-06-17 27.6 28.0 25.2 25.8 25.2 27.0 27.0
1991-06-16 27.4 27.6 27.8 27.9 29.0 27.3 25.5
1992-06-21 26.9 25.9 26.0 26.3 27.3 28.0 28.5
1993-06-20 25.2 27.0 27.7 27.3 27.3 27.2 27.5
1994-06-19 27.9 28.3 24.8 25.0 25.4 25.9 26.4
1995-06-18 28.2 28.5 28.3 25.4 28.3 28.3 28.2
1996-06-16 28.0 26.2 24.9 25.2 26.2 27.6 26.5
1997-06-15 26.0 24.2 24.1 23.5 23.2 22.7 22.3
1998-06-21 29.3 26.5 28.9 28.0 27.9 25.2 26.8
1999-06-20 25.0 25.8 27.3 26.2 25.5 25.9 26.6
2000-06-18 24.2 24.2 24.8 24.9 24.7 24.6 25.9
2001-06-17 24.9 24.9 26.9 27.2 27.5 27.7 27.2
2002-06-16 27.8 27.6 28.5 26.8 26.8 27.9 27.5
2003-06-15 25.5 23.9 24.0 25.5 24.6 24.3 26.0
2004-06-20 27.6 27.6 28.4 25.6 25.3 27.6 27.3
2005-06-19 25.4 24.4 27.6 28.3 28.3 25.1 24.7
2006-06-18 27.9 27.8 27.5 27.5 26.3 26.6 25.5
2007-06-17 23.7 24.8 25.6 26.3 25.9 27.0 27.3
2008-06-15 25.2 23.7 23.6 24.4 25.3 24.3 24.6
2009-06-21 26.9 27.0 27.4 27.3 27.9 28.0 27.2
2010-06-20 28.9 28.7 28.6 27.9 28.3 27.9 24.4
2011-06-19 24.9 26.1 27.1 27.5 27.6 26.4 25.4
2012-06-17 25.2 26.9 24.7 25.5 25.5 26.1 28.0
2013-06-16 23.6 23.8 25.1 25.8 26.4 26.8 27.3
2014-06-15 26.9 26.3 27.8 25.3 26.6 29.2 27.7
2015-06-21 28.5 28.6 29.2 26.3 26.7 26.0 26.1
2016-06-19 28.2 26.7 27.7 27.8 28.6 28.7 28.5
2017-06-18 26.8 27.8 24.4 24.7 25.3 25.2 25.2
Maximum 29.3 28.7 29.2 28.6 29.0 29.2 28.8
Minimum 22.1 21.8 22.9 23.1 23.2 20.5 22.3
30-year Normals
(1961-1990) 26.2 26.0 26.2 26.5 26.4 26.5 26.2
(1971-2000) 26.4 26.1 26.2 26.4 26.7 26.5 26.5
(1981-2010) 26.7 26.3 26.6 26.6 26.7 26.5 26.3
### means data not available
Column's Maximum in light red background colour
Column's Minimum in light blue background colour



Date
(yyyy-mm-dd)
Daily Mean Relative Humidity recorded at
Hong Kong Observatory
(%)
D-3 D-2 D-1 Day(D) D+1 D+2 D+3
1947-06-15 87 87 87 86 86 93 93
1948-06-20 89 93 93 93 94 92 89
1949-06-19 90 88 94 90 80 78 79
1950-06-18 87 89 88 83 82 89 93
1951-06-17 87 91 88 81 87 89 89
1952-06-15 89 94 89 89 84 83 82
1953-06-21 87 87 80 79 79 80 81
1954-06-20 82 81 84 86 88 90 85
1955-06-19 84 85 84 84 82 83 83
1956-06-17 93 89 84 91 85 85 84
1957-06-16 83 85 88 92 92 91 91
1958-06-15 81 77 72 77 90 89 70
1959-06-21 81 79 80 81 83 88 84
1960-06-19 93 87 83 81 77 79 77
1961-06-18 77 76 77 79 81 77 77
1962-06-17 91 87 91 88 86 88 82
1963-06-16 79 82 88 81 76 80 76
1964-06-21 79 82 80 80 79 80 80
1965-06-20 83 85 85 90 89 89 90
1966-06-19 82 83 84 80 86 83 88
1967-06-18 76 74 75 77 76 77 77
1968-06-16 88 86 81 81 79 80 87
1969-06-15 81 78 64 77 80 79 84
1970-06-21 84 78 83 81 89 82 84
1971-06-20 80 90 88 82 82 79 81
1972-06-18 88 95 95 97 87 83 80
1973-06-17 89 96 92 88 86 82 81
1974-06-16 85 86 85 82 81 85 83
1975-06-15 90 86 78 80 87 90 91
1976-06-20 81 78 79 83 90 82 82
1977-06-19 78 77 81 79 82 85 87
1978-06-18 77 78 73 75 78 79 78
1979-06-17 84 82 82 90 89 88 85
1980-06-15 77 77 76 76 77 75 77
1981-06-21 79 76 79 76 74 82 83
1982-06-20 77 79 78 77 80 79 91
1983-06-19 79 92 84 81 83 78 79
1984-06-17 78 81 93 88 88 89 89
1985-06-16 85 81 70 82 76 81 84
1986-06-15 87 90 81 77 75 83 82
1987-06-21 84 93 89 84 81 82 80
1988-06-19 78 82 79 77 77 78 77
1989-06-18 75 74 77 77 80 86 86
1990-06-17 77 79 87 90 86 87 84
1991-06-16 80 78 78 75 76 78 85
1992-06-21 81 89 90 83 77 77 78
1993-06-20 85 81 78 80 78 77 79
1994-06-19 81 81 93 94 93 91 86
1995-06-18 80 79 79 87 79 77 74
1996-06-16 74 79 87 88 81 79 77
1997-06-15 84 94 92 91 97 93 89
1998-06-21 79 81 79 78 79 90 82
1999-06-20 86 80 80 86 88 80 79
2000-06-18 66 74 89 96 83 89 81
2001-06-17 82 88 84 79 75 75 85
2002-06-16 79 74 76 79 78 78 79
2003-06-15 89 92 89 92 93 68 75
2004-06-20 80 79 76 78 85 79 81
2005-06-19 93 91 82 80 81 84 87
2006-06-18 84 82 79 83 86 85 87
2007-06-17 90 90 81 85 84 80 79
2008-06-15 81 87 93 92 96 95 93
2009-06-21 77 81 73 78 82 80 83
2010-06-20 80 78 77 79 78 80 85
2011-06-19 94 94 82 82 75 81 93
2012-06-17 80 83 93 93 91 85 77
2013-06-16 86 94 98 96 94 85 76
2014-06-15 68 58 59 80 81 79 79
2015-06-21 73 73 76 90 93 93 89
2016-06-19 82 82 83 80 78 75 75
2017-06-18 81 85 96 91 92 91 90
Maximum 94 96 98 97 97 95 93
Minimum 66 58 59 75 74 68 70
30-year Normals
(1961-1990) 82 83 82 82 82 82 83
(1971-2000) 81 83 83 83 82 83 82
(1981-2010) 81 83 82 83 82 82 83
### means data not available
Column's Maximum in light red background colour
Column's Minimum in light blue background colour



Date
(yyyy-mm-dd)
Daily Total Rainfall recorded at
Hong Kong Observatory
(mm)
D-3 D-2 D-1 Day(D) D+1 D+2 D+3
1947-06-15 4.9 2.6 2.0 3.6 1.7 7.4 0.1
1948-06-20 17.0 30.3 12.0 2.7 15.7 6.5 6.7
1949-06-19 50.3 1.7 6.3 Trace - - 0.1
1950-06-18 1.4 0.3 0.4 0.4 2.2 10.0 19.9
1951-06-17 11.5 17.0 0.6 0.1 9.9 16.5 10.5
1952-06-15 59.2 155.9 46.1 6.6 5.3 0.1 0.1
1953-06-21 19.1 - - - 0.2 0.6 1.4
1954-06-20 5.9 Trace 3.3 22.3 20.4 14.2 0.9
1955-06-19 1.1 0.7 6.7 3.1 3.3 0.8 9.4
1956-06-17 55.5 61.4 47.1 34.7 0.9 Trace 11.7
1957-06-16 - - 0.6 10.2 154.3 0.6 8.8
1958-06-15 Trace - - - 49.5 16.2 -
1959-06-21 - - 0.1 0.4 5.6 10.2 8.9
1960-06-19 61.1 1.7 0.2 3.2 - 0.5 Trace
1961-06-18 0.2 - - - - 0.6 -
1962-06-17 69.7 3.8 43.1 35.1 15.5 6.7 8.2
1963-06-16 - 34.3 33.3 0.9 0.9 6.5 0.2
1964-06-21 1.9 8.0 0.8 8.3 3.2 22.5 0.5
1965-06-20 0.8 54.6 Trace 9.8 3.1 3.6 37.1
1966-06-19 Trace 8.2 12.2 0.7 52.2 1.4 23.4
1967-06-18 - - Trace 3.9 0.1 0.3 1.0
1968-06-16 200.0 2.4 Trace - 0.4 0.9 104.1
1969-06-15 1.2 0.5 - - - 1.1 8.7
1970-06-21 21.5 4.2 2.5 1.0 88.8 0.6 20.8
1971-06-20 87.9 95.3 4.4 0.3 8.5 1.0 3.0
1972-06-18 24.9 205.9 213.8 232.6 0.6 0.1 -
1973-06-17 0.6 8.3 30.7 7.1 - - 0.1
1974-06-16 0.3 9.0 0.1 Trace Trace 51.8 0.6
1975-06-15 23.2 Trace - 0.5 8.8 30.2 75.9
1976-06-20 - - - 1.7 28.8 0.3 8.5
1977-06-19 - 0.2 1.1 0.9 2.2 16.4 26.7
1978-06-18 5.3 1.2 - - - - 0.8
1979-06-17 2.7 - - 7.4 0.8 0.1 -
1980-06-15 Trace Trace Trace 3.4 - - -
1981-06-21 Trace - - - - 5.3 22.0
1982-06-20 Trace 2.7 2.7 0.3 5.9 Trace 38.4
1983-06-19 1.6 346.7 3.8 Trace 9.8 2.4 Trace
1984-06-17 1.6 0.9 174.7 Trace 2.3 23.5 15.1
1985-06-16 3.8 2.9 - 0.8 Trace - 0.2
1986-06-15 28.1 4.4 Trace - - 19.1 1.0
1987-06-21 2.7 61.0 9.2 1.9 0.3 Trace -
1988-06-19 - 4.9 0.1 1.4 3.0 4.5 4.1
1989-06-18 Trace Trace Trace Trace Trace 3.5 1.0
1990-06-17 - Trace 58.4 55.1 11.2 1.1 Trace
1991-06-16 2.5 3.4 Trace 0.3 - 2.3 14.6
1992-06-21 1.6 29.6 32.2 Trace - Trace Trace
1993-06-20 5.9 Trace 0.1 3.0 0.8 0.1 1.4
1994-06-19 0.2 0.2 48.9 89.8 13.0 13.0 3.3
1995-06-18 0.9 Trace 0.8 81.8 0.3 6.1 0.6
1996-06-16 - 4.6 47.7 29.1 Trace 2.5 3.7
1997-06-15 Trace 145.1 32.5 2.9 118.8 45.2 9.1
1998-06-21 0.7 4.3 4.1 5.1 8.5 81.4 4.8
1999-06-20 19.0 5.6 5.0 4.5 53.1 7.7 0.4
2000-06-18 - - 57.2 168.1 1.7 31.4 2.6
2001-06-17 0.4 4.9 7.1 Trace - - 29.9
2002-06-16 Trace Trace Trace 11.9 9.6 0.5 6.8
2003-06-15 6.4 22.7 21.2 14.1 29.1 - -
2004-06-20 Trace Trace Trace 34.2 27.0 8.7 9.7
2005-06-19 26.1 35.1 3.3 Trace 1.0 106.3 32.7
2006-06-18 0.2 0.1 Trace Trace 0.6 Trace 10.0
2007-06-17 29.6 13.1 Trace 0.5 - - -
2008-06-15 7.2 62.5 80.8 41.3 32.3 86.9 24.8
2009-06-21 - 5.7 - - 15.7 12.5 8.5
2010-06-20 Trace - Trace 1.9 1.4 4.6 41.0
2011-06-19 75.2 77.5 1.2 Trace - 8.3 41.4
2012-06-17 Trace Trace 60.3 24.6 17.7 1.4 -
2013-06-16 1.4 30.8 62.0 5.4 6.5 Trace -
2014-06-15 - - Trace 9.9 3.8 1.1 6.0
2015-06-21 - Trace - 51.0 18.1 51.3 9.7
2016-06-19 2.8 2.5 13.1 - Trace - -
2017-06-18 14.5 13.5 138.0 24.2 32.6 24.8 95.9
Maximum 200.0 346.7 213.8 232.6 154.3 106.3 104.1
30-year Normals
(1961-1990) 15.9 28.6 19.7 12.4 8.2 6.8 13.4
(1971-2000) 7.1 31.2 24.3 23.3 9.3 11.6 7.9
(1981-2010) 4.6 25.3 19.7 18.3 11.5 15.6 9.5
### means data not available
Column's Maximum in light red background colour
Column's Minimum in light blue background colour



Date
(yyyy-mm-dd)
Daily Mean Cloud Amount recorded at
Hong Kong Observatory
(%)
D-3 D-2 D-1 Day(D) D+1 D+2 D+3
1947-06-15 ### ### ### ### ### ### ###
1948-06-20 ### ### ### ### ### ### ###
1949-06-19 89 78 78 74 79 77 69
1950-06-18 92 89 73 77 85 90 87
1951-06-17 87 95 91 86 72 93 88
1952-06-15 94 96 98 87 55 45 34
1953-06-21 72 40 24 33 64 84 78
1954-06-20 86 86 91 95 90 92 81
1955-06-19 83 86 83 83 80 79 74
1956-06-17 92 92 92 91 59 64 56
1957-06-16 61 74 76 89 97 89 78
1958-06-15 76 23 35 63 95 100 84
1959-06-21 80 68 63 74 75 88 86
1960-06-19 96 90 81 65 44 65 66
1961-06-18 61 39 24 19 29 32 45
1962-06-17 92 81 86 89 88 90 82
1963-06-16 82 86 89 88 81 85 64
1964-06-21 78 79 82 64 80 75 64
1965-06-20 76 74 75 88 88 89 88
1966-06-19 80 81 76 76 88 85 91
1967-06-18 71 63 73 77 69 72 79
1968-06-16 93 94 84 85 81 84 87
1969-06-15 78 75 69 39 49 74 86
1970-06-21 65 52 66 64 88 71 67
1971-06-20 83 95 85 56 67 74 83
1972-06-18 86 98 94 96 82 58 64
1973-06-17 88 92 89 77 71 73 69
1974-06-16 94 82 80 78 84 93 85
1975-06-15 89 94 70 84 94 91 94
1976-06-20 60 49 59 68 74 70 70
1977-06-19 60 70 79 67 76 88 90
1978-06-18 71 83 70 52 69 71 78
1979-06-17 66 60 82 97 89 76 58
1980-06-15 25 37 57 46 52 42 41
1981-06-21 55 34 33 52 55 68 80
1982-06-20 80 78 87 80 78 82 95
1983-06-19 88 98 100 94 85 82 57
1984-06-17 73 85 96 94 89 86 86
1985-06-16 85 95 78 89 56 83 93
1986-06-15 87 88 63 42 57 88 86
1987-06-21 93 90 81 84 71 72 69
1988-06-19 69 75 71 72 77 71 79
1989-06-18 59 57 64 73 78 82 86
1990-06-17 51 63 89 94 86 77 71
1991-06-16 76 78 73 85 85 82 88
1992-06-21 78 82 86 74 62 84 81
1993-06-20 94 86 82 81 77 64 74
1994-06-19 88 86 95 97 88 82 77
1995-06-18 88 88 87 88 82 77 74
1996-06-16 60 73 90 93 77 72 74
1997-06-15 82 93 92 92 99 95 90
1998-06-21 88 91 86 86 88 93 90
1999-06-20 86 84 81 78 91 88 82
2000-06-18 69 67 94 97 87 92 79
2001-06-17 85 80 80 58 43 57 83
2002-06-16 86 84 86 85 86 85 83
2003-06-15 88 92 90 89 94 75 18
2004-06-20 71 60 60 69 82 82 84
2005-06-19 91 87 91 88 88 90 90
2006-06-18 92 80 66 78 85 70 62
2007-06-17 88 86 86 87 74 66 45
2008-06-15 88 89 89 90 88 88 88
2009-06-21 61 65 68 84 86 84 88
2010-06-20 83 83 74 85 76 82 84
2011-06-19 87 91 66 59 39 67 89
2012-06-17 77 86 88 87 87 83 76
2013-06-16 88 91 91 88 82 59 27
2014-06-15 59 46 75 87 88 87 80
2015-06-21 52 40 56 80 87 88 86
2016-06-19 88 85 81 41 59 51 32
2017-06-18 88 88 93 91 86 88 89
Maximum 96 98 100 97 99 100 95
Minimum 25 23 24 19 29 32 18
30-year Normals
(1961-1990) 75 75 75 73 74 76 76
(1971-2000) 76 78 80 79 78 79 78
(1981-2010) 79 80 81 82 79 80 78
### means data not available
Column's Maximum in light red background colour
Column's Minimum in light blue background colour